Time;durP1;ratioP1;P1;durP2;ratioP2;P2;SDS_P1;SDS_P2;PMS_P1;PMS_P2;Temp;Humidity;BMP_temperature;BMP_pressure;BME280_temperature;BME280_humidity;BME280_pressure;Samples;Min_cycle;Max_cycle;Signal;HPM_P1;HPM_P2
2022/10/18 00:01:25;;;;;;;43.33;32.30;;;22.70;96.80;;;;;;1912129;73;21122;-83
2022/10/18 00:03:57;;;;;;;40.70;32.45;;;22.80;96.70;;;;;;1937808;72;21173;-86
2022/10/18 00:06:31;;;;;;;45.92;31.48;;;22.80;96.60;;;;;;1909060;74;21191;-82
2022/10/18 00:09:01;;;;;;;43.23;32.35;;;22.90;96.70;;;;;;1930642;73;21103;-82
2022/10/18 00:11:32;;;;;;;40.05;31.65;;;22.90;96.70;;;;;;1897848;74;21105;-83
2022/10/18 00:14:03;;;;;;;42.40;32.30;;;22.90;96.50;;;;;;1905890;75;21500;-83
2022/10/18 00:16:34;;;;;;;43.42;32.00;;;23.00;96.50;;;;;;1918084;73;21348;-84
2022/10/18 00:19:05;;;;;;;40.20;31.80;;;23.00;96.60;;;;;;1915427;73;21059;-82
2022/10/18 00:21:36;;;;;;;40.40;32.53;;;23.00;96.30;;;;;;1918536;73;21652;-82
2022/10/18 00:24:06;;;;;;;42.30;32.48;;;23.00;96.30;;;;;;1919117;73;21107;-83
2022/10/18 00:26:37;;;;;;;43.58;32.23;;;23.00;96.30;;;;;;1914947;73;21135;-83
2022/10/18 00:29:09;;;;;;;42.75;32.20;;;23.10;96.20;;;;;;1926564;73;21067;-82
2022/10/18 00:31:40;;;;;;;47.88;32.53;;;23.10;96.30;;;;;;1923583;73;21072;-82
2022/10/18 00:34:13;;;;;;;43.58;33.78;;;23.10;96.30;;;;;;1918787;73;21149;-82
2022/10/18 00:36:45;;;;;;;43.00;32.83;;;23.10;96.40;;;;;;1925284;73;21228;-83
2022/10/18 00:39:18;;;;;;;38.80;30.32;;;23.20;96.20;;;;;;1917344;73;21083;-83
2022/10/18 00:41:50;;;;;;;41.90;30.37;;;23.30;95.70;;;;;;1917987;73;21110;-82
2022/10/18 00:44:21;;;;;;;42.43;29.65;;;23.30;95.40;;;;;;1919226;73;21095;-82
2022/10/18 00:46:55;;;;;;;40.95;31.15;;;23.40;95.30;;;;;;1917298;73;21065;-83
2022/10/18 00:49:28;;;;;;;36.80;30.02;;;23.50;95.00;;;;;;1918454;72;21099;-81
2022/10/18 00:52:01;;;;;;;42.48;28.17;;;23.50;94.80;;;;;;1919552;73;21064;-83
2022/10/18 00:54:36;;;;;;;36.03;28.47;;;23.60;94.80;;;;;;1919687;73;21193;-83
2022/10/18 00:57:09;;;;;;;35.78;26.42;;;23.70;94.20;;;;;;1885718;74;21578;-85
2022/10/18 00:59:42;;;;;;;35.63;27.45;;;23.80;94.10;;;;;;1925953;72;21072;-84
2022/10/18 01:02:17;;;;;;;37.83;27.75;;;23.90;94.10;;;;;;1919042;72;21201;-84
2022/10/18 01:04:47;;;;;;;34.13;27.42;;;24.00;94.10;;;;;;1921032;73;21112;-84
2022/10/18 01:07:19;;;;;;;37.05;27.35;;;24.10;93.70;;;;;;1918419;72;21173;-83
2022/10/18 01:09:52;;;;;;;32.90;25.40;;;24.20;93.10;;;;;;1919211;73;21126;-82
2022/10/18 01:12:25;;;;;;;31.85;25.15;;;24.20;92.60;;;;;;1917517;73;21189;-83
2022/10/18 01:14:58;;;;;;;34.50;24.98;;;24.40;92.00;;;;;;1890303;74;21166;-82
2022/10/18 01:17:32;;;;;;;31.27;23.42;;;24.40;91.10;;;;;;1914452;73;21073;-82
2022/10/18 01:20:03;;;;;;;32.85;24.65;;;24.50;90.80;;;;;;1915243;73;21575;-78
2022/10/18 01:22:37;;;;;;;30.97;22.95;;;24.60;90.40;;;;;;1916788;73;21641;-76
2022/10/18 01:25:08;;;;;;;31.85;23.75;;;24.70;90.50;;;;;;1911422;73;21701;-76
2022/10/18 01:27:41;;;;;;;33.20;22.35;;;24.70;89.60;;;;;;1905941;74;21993;-76
2022/10/18 01:30:16;;;;;;;35.63;23.67;;;24.80;89.90;;;;;;1915478;73;21192;-76
2022/10/18 01:32:49;;;;;;;37.67;23.25;;;24.90;89.40;;;;;;1922674;73;21759;-72
2022/10/18 01:35:22;;;;;;;27.77;21.87;;;25.00;89.20;;;;;;1924995;73;21564;-77
2022/10/18 01:37:54;;;;;;;29.80;22.27;;;25.00;89.30;;;;;;1921054;73;21544;-76
2022/10/18 01:40:26;;;;;;;30.30;23.90;;;25.10;89.00;;;;;;1925668;73;21161;-76
2022/10/18 01:42:58;;;;;;;26.15;21.48;;;25.10;89.00;;;;;;1927090;73;21646;-77
2022/10/18 01:45:31;;;;;;;29.87;22.58;;;25.20;88.30;;;;;;1936525;73;21135;-76
2022/10/18 01:48:03;;;;;;;30.95;21.57;;;25.20;88.60;;;;;;1918104;73;21099;-77
2022/10/18 01:50:36;;;;;;;28.05;21.30;;;25.20;88.30;;;;;;1923601;73;21176;-77
2022/10/18 01:53:08;;;;;;;28.77;22.25;;;25.30;88.10;;;;;;1923971;73;21139;-75
2022/10/18 01:55:41;;;;;;;29.60;22.90;;;25.40;87.90;;;;;;1928399;73;21146;-78
2022/10/18 01:58:15;;;;;;;31.00;22.35;;;25.40;88.30;;;;;;1939521;73;21659;-75
2022/10/18 02:00:48;;;;;;;32.13;22.27;;;25.50;85.80;;;;;;1877694;74;21172;-76
2022/10/18 02:03:19;;;;;;;30.60;21.52;;;25.60;86.50;;;;;;1910394;73;21177;-77
2022/10/18 02:05:52;;;;;;;25.37;20.57;;;25.60;86.70;;;;;;1916988;73;21120;-78
2022/10/18 02:08:25;;;;;;;28.42;20.95;;;25.70;85.00;;;;;;1865651;74;21486;-77
2022/10/18 02:10:57;;;;;;;26.80;19.60;;;25.80;85.50;;;;;;1882181;74;21126;-77
2022/10/18 02:13:30;;;;;;;27.37;19.42;;;25.90;85.40;;;;;;1885111;75;21734;-77
2022/10/18 02:16:03;;;;;;;27.00;19.15;;;25.90;81.80;;;;;;1897302;73;21206;-78
2022/10/18 02:18:36;;;;;;;25.35;18.98;;;26.00;82.90;;;;;;1878747;75;21205;-76
2022/10/18 02:21:10;;;;;;;26.45;19.23;;;26.00;82.50;;;;;;1875588;75;21574;-77
2022/10/18 02:23:42;;;;;;;24.67;19.07;;;26.20;81.40;;;;;;1916938;73;21390;-76
2022/10/18 02:26:14;;;;;;;25.95;19.57;;;26.20;82.00;;;;;;1918686;73;21216;-76
2022/10/18 02:28:45;;;;;;;33.25;19.40;;;26.30;80.30;;;;;;1877042;76;21084;-77
2022/10/18 02:31:19;;;;;;;23.75;17.85;;;26.40;79.40;;;;;;1918019;73;21125;-77
2022/10/18 02:33:53;;;;;;;23.32;18.00;;;26.50;79.40;;;;;;1914615;73;21189;-78
2022/10/18 02:36:25;;;;;;;28.75;19.52;;;26.60;78.80;;;;;;1883198;75;21152;-78
2022/10/18 02:38:59;;;;;;;24.77;18.42;;;26.60;79.50;;;;;;1878625;75;21635;-77
2022/10/18 02:41:31;;;;;;;23.42;17.73;;;26.70;78.80;;;;;;1883049;75;21579;-76
2022/10/18 02:44:02;;;;;;;28.38;18.48;;;26.80;78.80;;;;;;1918754;73;21202;-77
2022/10/18 02:46:34;;;;;;;27.27;17.85;;;26.80;78.00;;;;;;1882082;76;21190;-77
2022/10/18 02:49:05;;;;;;;24.90;17.52;;;26.90;78.30;;;;;;1917754;73;21151;-78
2022/10/18 02:51:36;;;;;;;24.25;16.00;;;27.00;77.30;;;;;;1872831;75;21685;-77
2022/10/18 02:54:07;;;;;;;24.15;16.57;;;27.10;74.90;;;;;;1921511;73;21112;-78
2022/10/18 02:56:38;;;;;;;24.50;16.62;;;27.20;73.90;;;;;;1873456;75;21599;-75
2022/10/18 02:59:10;;;;;;;25.97;17.80;;;27.40;74.40;;;;;;1908067;73;21598;-76
2022/10/18 03:01:41;;;;;;;21.27;16.35;;;27.50;73.80;;;;;;1920576;73;21095;-76
2022/10/18 03:04:12;;;;;;;25.05;17.30;;;27.60;73.20;;;;;;1912712;73;21177;-76
2022/10/18 03:06:46;;;;;;;25.70;16.50;;;27.70;73.40;;;;;;1913478;73;21264;-77
2022/10/18 03:09:17;;;;;;;25.52;16.62;;;27.70;73.10;;;;;;1873634;75;21200;-77
2022/10/18 03:11:48;;;;;;;23.70;16.48;;;27.90;73.40;;;;;;1882798;75;21120;-78
2022/10/18 03:14:19;;;;;;;20.45;16.25;;;27.90;72.80;;;;;;1908535;73;21169;-78
2022/10/18 03:16:51;;;;;;;24.02;17.25;;;28.00;72.50;;;;;;1870128;75;21606;-78
2022/10/18 03:19:22;;;;;;;21.27;17.27;;;28.10;72.30;;;;;;1811657;78;21088;-79
2022/10/18 03:21:53;;;;;;;23.10;17.48;;;28.20;72.30;;;;;;1875268;75;21072;-77
2022/10/18 03:24:24;;;;;;;27.80;17.23;;;28.30;71.90;;;;;;1881573;75;21192;-77
2022/10/18 03:26:55;;;;;;;22.22;16.05;;;28.30;71.10;;;;;;1876959;75;21158;-76
2022/10/18 03:29:29;;;;;;;24.87;16.57;;;28.40;71.30;;;;;;1883400;75;21167;-77
2022/10/18 03:32:00;;;;;;;20.52;16.02;;;28.50;70.70;;;;;;1883403;75;21094;-75
2022/10/18 03:34:37;;;;;;;20.90;16.90;;;28.60;69.90;;;;;;1864118;76;21224;-77
2022/10/18 03:37:08;;;;;;;22.07;16.07;;;28.60;70.10;;;;;;1874274;75;21094;-74
2022/10/18 03:39:39;;;;;;;20.20;15.53;;;28.70;70.40;;;;;;1878241;75;21213;-77
2022/10/18 03:42:10;;;;;;;24.75;16.15;;;28.70;69.00;;;;;;1882435;74;21095;-78
2022/10/18 03:44:41;;;;;;;21.37;15.10;;;28.80;68.20;;;;;;1863030;76;21158;-77
2022/10/18 03:47:12;;;;;;;18.85;15.85;;;28.80;67.80;;;;;;1873906;75;21614;-77
2022/10/18 03:49:42;;;;;;;21.70;16.82;;;28.80;70.40;;;;;;1877954;76;21080;-78
2022/10/18 03:52:14;;;;;;;24.60;15.85;;;28.80;70.40;;;;;;1844807;76;21286;-78
2022/10/18 03:54:44;;;;;;;23.47;16.93;;;28.90;69.90;;;;;;1880241;75;21131;-78
2022/10/18 03:57:15;;;;;;;22.20;15.83;;;29.00;69.70;;;;;;1877967;75;21166;-78
2022/10/18 03:59:47;;;;;;;24.30;16.37;;;29.10;70.00;;;;;;1870899;75;21157;-78
2022/10/18 04:02:18;;;;;;;22.65;15.93;;;29.20;69.60;;;;;;1870040;75;21143;-79
2022/10/18 04:04:49;;;;;;;21.57;15.65;;;29.20;69.40;;;;;;1836817;76;21189;-79
2022/10/18 04:07:21;;;;;;;22.05;15.98;;;29.30;69.20;;;;;;1874438;75;21744;-77
2022/10/18 04:09:53;;;;;;;26.93;16.45;;;29.30;67.50;;;;;;1864384;75;21095;-77
2022/10/18 04:12:25;;;;;;;23.87;16.62;;;29.30;68.00;;;;;;1866956;75;21123;-78
2022/10/18 04:14:57;;;;;;;23.15;16.20;;;29.40;67.20;;;;;;1871246;75;21252;-78
2022/10/18 04:17:38;;;;;;;24.25;15.70;;;29.50;67.70;;;;;;1858316;75;21939;-78
2022/10/18 04:20:13;;;;;;;20.70;15.65;;;29.50;67.90;;;;;;1843200;76;21165;-79
2022/10/18 04:22:48;;;;;;;22.90;15.68;;;29.50;67.50;;;;;;1843473;75;21114;-77
2022/10/18 04:25:28;;;;;;;22.45;15.18;;;29.50;67.50;;;;;;1853964;76;21192;-78
2022/10/18 04:27:56;;;;;;;23.00;16.02;;;29.60;66.50;;;;;;1849052;76;21168;-79
2022/10/18 04:30:29;;;;;;;23.25;15.88;;;29.60;66.20;;;;;;1858815;76;21111;-77
2022/10/18 04:33:06;;;;;;;19.82;15.75;;;29.60;66.30;;;;;;1836342;77;21598;-77
2022/10/18 04:35:40;;;;;;;22.58;15.53;;;29.70;65.80;;;;;;1860358;76;21201;-75
2022/10/18 04:38:13;;;;;;;18.40;14.98;;;29.80;64.80;;;;;;1831812;76;21153;-77
2022/10/18 04:40:43;;;;;;;23.35;15.32;;;29.80;65.00;;;;;;1853506;76;21751;-77
2022/10/18 04:43:14;;;;;;;21.57;15.72;;;29.90;66.80;;;;;;1858750;76;21680;-78
2022/10/18 04:45:47;;;;;;;26.42;15.90;;;30.00;65.50;;;;;;1871657;76;21178;-77
2022/10/18 04:48:20;;;;;;;28.27;16.52;;;30.10;65.30;;;;;;1854132;76;21201;-76
2022/10/18 04:50:51;;;;;;;21.17;14.70;;;30.10;64.50;;;;;;1806794;78;21207;-76
2022/10/18 04:53:22;;;;;;;23.98;16.42;;;30.20;65.00;;;;;;1846874;77;21595;-77
2022/10/18 04:55:52;;;;;;;19.17;15.20;;;30.20;64.60;;;;;;1858897;76;21165;-78
2022/10/18 04:58:25;;;;;;;22.67;15.50;;;30.30;64.10;;;;;;1842174;76;21202;-77
2022/10/18 05:00:56;;;;;;;20.08;14.25;;;30.40;62.70;;;;;;1865541;75;21201;-77
2022/10/18 05:03:26;;;;;;;21.87;14.70;;;30.40;62.60;;;;;;1851466;75;21682;-77
2022/10/18 05:05:57;;;;;;;19.00;14.45;;;30.50;62.60;;;;;;1848258;75;21130;-77
2022/10/18 05:08:30;;;;;;;20.70;15.20;;;30.50;63.10;;;;;;1841199;76;21162;-78
2022/10/18 05:11:22;;;;;;;20.70;14.98;;;30.50;63.10;;;;;;1836384;77;21614;-76
2022/10/18 05:13:53;;;;;;;19.17;14.38;;;30.50;62.80;;;;;;1823110;76;21209;-79
2022/10/18 05:16:27;;;;;;;22.48;14.53;;;30.40;62.30;;;;;;1877933;73;21060;-76
2022/10/18 05:18:58;;;;;;;21.20;15.00;;;30.40;63.00;;;;;;1921951;73;21165;-76
2022/10/18 05:21:29;;;;;;;23.05;14.73;;;30.40;63.00;;;;;;1905926;73;21609;-79
2022/10/18 05:24:00;;;;;;;23.27;14.78;;;30.40;62.40;;;;;;1869215;75;21248;-76
2022/10/18 05:26:32;;;;;;;22.65;15.23;;;30.50;62.80;;;;;;1837919;76;21128;-76
2022/10/18 05:29:04;;;;;;;21.00;15.08;;;30.50;60.30;;;;;;1905214;75;21149;-78
2022/10/18 05:31:35;;;;;;;23.52;14.68;;;30.50;62.40;;;;;;1869058;76;21197;-76
2022/10/18 05:34:06;;;;;;;24.12;14.80;;;30.60;62.70;;;;;;1874305;76;21756;-76
2022/10/18 05:36:37;;;;;;;21.27;13.88;;;30.60;61.70;;;;;;1900723;75;21638;-78
2022/10/18 05:39:19;;;;;;;20.52;14.65;;;30.60;62.70;;;;;;1886622;75;21185;-76
2022/10/18 05:41:45;;;;;;;23.50;15.23;;;30.70;60.90;;;;;;1897075;75;21147;-77
2022/10/18 05:44:16;;;;;;;21.00;14.63;;;30.70;62.10;;;;;;1918524;73;21120;-78
2022/10/18 05:46:47;;;;;;;23.15;15.18;;;30.80;61.60;;;;;;1883549;76;21082;-75
2022/10/18 05:49:18;;;;;;;18.60;14.33;;;30.80;61.40;;;;;;1916989;75;21122;-78
2022/10/18 05:51:49;;;;;;;17.75;14.43;;;30.80;60.80;;;;;;1913614;75;21125;-76
2022/10/18 05:54:21;;;;;;;18.12;14.18;;;30.80;60.50;;;;;;1884014;76;21134;-79
2022/10/18 05:56:52;;;;;;;19.10;13.90;;;30.80;60.00;;;;;;1916030;75;21603;-79
2022/10/18 05:59:43;;;;;;;21.77;14.03;;;30.90;60.00;;;;;;1874022;76;21143;-78
2022/10/18 06:02:14;;;;;;;22.30;15.20;;;30.90;60.70;;;;;;1949341;72;21547;-79
2022/10/18 06:04:45;;;;;;;20.00;14.25;;;30.80;60.40;;;;;;1901683;74;21193;-78
2022/10/18 06:07:17;;;;;;;19.67;14.58;;;30.80;59.60;;;;;;1904624;74;21129;-80
2022/10/18 06:09:48;;;;;;;20.82;14.95;;;30.80;59.80;;;;;;1929778;73;21124;-79
2022/10/18 06:12:18;;;;;;;24.85;14.70;;;30.80;59.60;;;;;;1934009;73;21638;-77
2022/10/18 06:14:49;;;;;;;21.33;15.53;;;30.90;61.20;;;;;;1905345;74;21138;-77
2022/10/18 06:17:20;;;;;;;21.40;14.73;;;30.90;60.70;;;;;;1958175;72;21212;-76
2022/10/18 06:19:55;;;;;;;20.37;14.93;;;30.90;61.30;;;;;;1955372;72;21091;-77
2022/10/18 06:22:27;;;;;;;18.85;14.43;;;30.80;59.60;;;;;;1956203;72;21147;-77
2022/10/18 06:24:58;;;;;;;21.52;15.00;;;30.80;59.70;;;;;;1970793;72;21886;-77
2022/10/18 06:27:30;;;;;;;19.50;14.55;;;30.80;59.30;;;;;;1955626;72;21159;-78
2022/10/18 06:30:01;;;;;;;19.37;15.10;;;30.80;59.80;;;;;;1952341;72;21607;-76
2022/10/18 06:32:33;;;;;;;23.77;14.68;;;30.90;59.20;;;;;;1952226;72;21886;-77
2022/10/18 06:35:04;;;;;;;23.27;15.45;;;30.80;59.40;;;;;;1951921;72;21103;-75
2022/10/18 06:37:35;;;;;;;22.52;15.50;;;30.90;58.90;;;;;;1958766;72;21151;-77
2022/10/18 06:40:13;;;;;;;19.50;15.20;;;31.00;59.80;;;;;;1924034;73;21161;-76
2022/10/18 06:42:48;;;;;;;22.10;16.77;;;31.00;60.10;;;;;;1940251;73;21072;-77
2022/10/18 06:45:24;;;;;;;20.50;14.98;;;31.10;59.70;;;;;;1914046;73;21123;-78
2022/10/18 06:47:57;;;;;;;23.32;14.53;;;31.10;59.60;;;;;;1911428;74;21162;-76
2022/10/18 06:50:32;;;;;;;23.22;14.85;;;31.10;59.50;;;;;;1921722;74;21062;-78
2022/10/18 06:53:10;;;;;;;22.80;14.98;;;31.20;60.50;;;;;;1908793;73;21146;-76
2022/10/18 06:55:49;;;;;;;21.82;14.63;;;31.10;59.70;;;;;;1958272;72;21128;-78
2022/10/18 06:58:25;;;;;;;19.90;15.15;;;31.20;59.90;;;;;;1950519;72;22090;-76
2022/10/18 07:00:58;;;;;;;21.27;14.05;;;31.20;59.30;;;;;;1948845;72;21936;-76
2022/10/18 07:03:33;;;;;;;20.55;15.28;;;31.20;59.10;;;;;;1948491;72;21148;-77
2022/10/18 07:06:07;;;;;;;20.62;15.50;;;31.20;59.20;;;;;;1951678;72;21233;-78
2022/10/18 07:08:39;;;;;;;19.92;14.70;;;31.10;58.70;;;;;;1961105;72;21097;-77
2022/10/18 07:11:12;;;;;;;19.20;15.10;;;31.10;60.00;;;;;;1952671;72;21683;-78
2022/10/18 07:13:43;;;;;;;21.25;14.87;;;31.00;59.70;;;;;;1892637;75;21652;-78
2022/10/18 07:16:16;;;;;;;22.48;14.58;;;31.00;60.60;;;;;;1900571;75;21217;-78
2022/10/18 07:18:50;;;;;;;20.95;14.85;;;31.00;59.10;;;;;;1897775;74;21527;-77
2022/10/18 07:21:23;;;;;;;17.02;13.80;;;31.00;58.40;;;;;;1931003;73;21165;-79
2022/10/18 07:24:01;;;;;;;22.05;14.23;;;31.00;59.20;;;;;;1915777;74;21150;-75
2022/10/18 07:26:34;;;;;;;23.40;13.80;;;31.00;60.00;;;;;;1914070;74;21076;-78
2022/10/18 07:29:10;;;;;;;23.55;14.20;;;31.00;58.70;;;;;;1906102;74;21122;-77
2022/10/18 07:31:45;;;;;;;17.95;14.55;;;31.00;58.30;;;;;;1922577;73;21607;-75
2022/10/18 07:34:16;;;;;;;21.17;14.60;;;31.00;58.20;;;;;;1918557;73;21134;-78
2022/10/18 07:36:47;;;;;;;22.05;13.62;;;30.90;58.80;;;;;;1899420;74;21200;-77
2022/10/18 07:39:18;;;;;;;17.67;13.13;;;30.90;58.50;;;;;;1922422;73;21162;-76
2022/10/18 07:41:48;;;;;;;20.48;13.95;;;30.90;59.30;;;;;;1885621;75;22293;-77
2022/10/18 07:44:20;;;;;;;20.32;13.43;;;30.90;59.40;;;;;;1934348;73;21167;-76
2022/10/18 07:46:50;;;;;;;24.90;13.85;;;30.80;58.60;;;;;;1916112;73;21151;-76
2022/10/18 07:49:21;;;;;;;19.77;13.65;;;30.80;58.30;;;;;;1924341;74;21206;-77
2022/10/18 07:51:52;;;;;;;18.87;13.48;;;30.80;58.40;;;;;;1920532;74;21128;-77
2022/10/18 07:54:22;;;;;;;24.45;15.18;;;30.70;58.10;;;;;;1868405;75;21214;-77
2022/10/18 07:56:53;;;;;;;18.20;13.93;;;30.70;58.20;;;;;;1905924;74;21067;-77
2022/10/18 07:59:24;;;;;;;19.30;13.65;;;30.70;58.60;;;;;;1869645;75;21085;-76
2022/10/18 08:01:55;;;;;;;17.98;13.10;;;30.60;58.40;;;;;;1905951;74;21142;-77
2022/10/18 08:04:26;;;;;;;22.20;14.28;;;30.60;59.30;;;;;;1910771;75;21891;-79
2022/10/18 08:06:57;;;;;;;24.00;14.65;;;30.60;59.60;;;;;;1903278;73;21665;-76
2022/10/18 08:09:28;;;;;;;22.02;14.75;;;30.60;59.70;;;;;;1906654;74;21679;-76
2022/10/18 08:11:59;;;;;;;21.48;13.98;;;30.60;59.30;;;;;;1909635;73;21146;-76
2022/10/18 08:14:31;;;;;;;21.48;13.43;;;30.60;59.30;;;;;;1915386;73;21135;-78
2022/10/18 08:17:03;;;;;;;23.98;15.30;;;30.50;59.60;;;;;;1908315;73;21170;-78
2022/10/18 08:19:33;;;;;;;20.45;13.98;;;30.50;59.70;;;;;;1909021;73;21709;-77
2022/10/18 08:22:06;;;;;;;21.02;14.18;;;30.50;59.50;;;;;;1902354;73;21107;-77
2022/10/18 08:24:46;;;;;;;19.95;13.78;;;30.50;60.40;;;;;;1902601;74;21638;-77
2022/10/18 08:27:18;;;;;;;21.93;14.45;;;30.50;60.10;;;;;;1906018;73;21168;-76
2022/10/18 08:30:00;;;;;;;19.67;13.95;;;30.50;59.90;;;;;;1906693;74;21167;-77
2022/10/18 08:32:32;;;;;;;20.30;14.03;;;30.50;60.30;;;;;;1905592;73;21151;-75
2022/10/18 08:35:03;;;;;;;20.02;14.43;;;30.50;61.00;;;;;;1912588;74;21240;-78
2022/10/18 08:37:39;;;;;;;19.20;14.40;;;30.50;61.10;;;;;;1916695;74;21714;-78
2022/10/18 08:40:14;;;;;;;19.00;13.62;;;30.50;60.90;;;;;;1904858;74;21232;-78
2022/10/18 08:42:47;;;;;;;21.12;14.07;;;30.50;61.00;;;;;;1907178;73;21123;-78
2022/10/18 08:45:18;;;;;;;23.62;14.23;;;30.50;61.40;;;;;;1897817;75;22826;-76
2022/10/18 08:47:56;;;;;;;23.67;14.40;;;30.40;61.10;;;;;;1901610;73;21087;-78
2022/10/18 08:50:27;;;;;;;;;;;30.50;61.10;;;;;;1909236;74;21135;-78
2022/10/18 08:52:59;;;;;;;20.92;14.03;;;30.40;62.00;;;;;;1903319;74;20163;-78
2022/10/18 08:55:35;;;;;;;21.10;14.33;;;30.30;61.20;;;;;;1906470;74;21107;-77
2022/10/18 08:58:08;;;;;;;19.27;14.13;;;30.30;61.60;;;;;;1910648;74;21127;-77
2022/10/18 09:00:42;;;;;;;24.72;14.25;;;30.30;62.00;;;;;;1902039;74;21671;-77
2022/10/18 09:03:16;;;;;;;22.50;14.47;;;30.30;62.50;;;;;;1916027;73;21300;-78
2022/10/18 09:05:50;;;;;;;19.25;14.13;;;30.30;62.70;;;;;;1906178;74;21101;-77
2022/10/18 09:08:24;;;;;;;20.97;14.35;;;30.20;62.50;;;;;;1907162;74;21638;-78
2022/10/18 09:10:57;;;;;;;19.73;13.93;;;30.20;62.40;;;;;;1900415;74;21139;-78
2022/10/18 09:13:31;;;;;;;19.67;14.33;;;30.20;62.20;;;;;;1903913;74;21695;-77
2022/10/18 09:16:03;;;;;;;20.60;14.63;;;30.20;62.50;;;;;;1903358;74;21594;-77
2022/10/18 09:18:37;;;;;;;17.65;13.85;;;30.20;62.20;;;;;;1920585;74;21978;-78
2022/10/18 09:21:11;;;;;;;18.95;14.55;;;30.10;62.60;;;;;;1885824;75;21117;-79
2022/10/18 09:23:44;;;;;;;20.25;14.45;;;30.10;62.20;;;;;;1883607;75;21133;-76
2022/10/18 09:26:17;;;;;;;16.35;13.40;;;30.10;62.10;;;;;;1880418;73;21140;-76
2022/10/18 09:28:51;;;;;;;24.63;15.10;;;30.00;62.80;;;;;;1901627;74;21074;-77
2022/10/18 09:31:22;;;;;;;24.00;14.47;;;29.90;62.20;;;;;;1917639;72;21984;-77
2022/10/18 09:33:56;;;;;;;19.15;14.00;;;29.90;62.60;;;;;;1914807;74;21498;-77
2022/10/18 09:36:34;;;;;;;21.70;14.23;;;29.90;63.10;;;;;;1925559;72;21122;-80
2022/10/18 09:39:03;;;;;;;20.12;13.78;;;29.80;63.00;;;;;;1878298;75;21736;-77
2022/10/18 09:41:35;;;;;;;22.77;14.63;;;29.80;63.40;;;;;;1881583;75;21130;-77
2022/10/18 09:44:08;;;;;;;20.50;14.75;;;29.80;63.60;;;;;;1881607;73;21692;-78
2022/10/18 09:46:42;;;;;;;20.32;14.15;;;29.80;63.70;;;;;;1909712;74;21596;-77
2022/10/18 09:49:15;;;;;;;25.12;14.23;;;29.70;63.90;;;;;;1887035;73;21106;-77
2022/10/18 09:51:47;;;;;;;20.30;14.98;;;29.60;64.30;;;;;;1920213;74;21159;-77
2022/10/18 09:54:21;;;;;;;22.77;15.78;;;29.60;63.70;;;;;;1881038;76;22038;-76
2022/10/18 09:56:55;;;;;;;26.00;15.43;;;29.50;64.10;;;;;;1898367;74;21143;-77
2022/10/18 09:59:26;;;;;;;21.75;14.93;;;29.50;65.40;;;;;;1865033;76;21171;-77
2022/10/18 10:01:59;;;;;;;20.32;14.58;;;29.40;65.00;;;;;;1887428;75;21598;-77
2022/10/18 10:04:30;;;;;;;20.35;14.93;;;29.40;65.00;;;;;;1879524;75;21167;-77
2022/10/18 10:07:04;;;;;;;21.20;14.70;;;29.40;64.90;;;;;;1877539;75;21179;-76
2022/10/18 10:09:38;;;;;;;21.68;14.03;;;29.30;65.10;;;;;;1955855;72;21760;-76
2022/10/18 10:12:11;;;;;;;19.20;15.10;;;29.30;65.10;;;;;;1960007;72;21768;-77
2022/10/18 10:14:44;;;;;;;22.25;15.18;;;29.30;65.60;;;;;;1944639;72;21059;-76
2022/10/18 10:17:17;;;;;;;23.95;16.00;;;29.30;66.00;;;;;;1960129;72;21131;-76
2022/10/18 10:19:51;;;;;;;21.68;16.32;;;29.20;66.20;;;;;;1959669;72;21523;-77
2022/10/18 10:22:24;;;;;;;21.20;15.55;;;29.20;66.20;;;;;;1953775;72;21159;-77
2022/10/18 10:25:00;;;;;;;19.70;15.18;;;29.20;66.70;;;;;;1952633;72;21229;-76
2022/10/18 10:27:33;;;;;;;23.83;15.18;;;29.10;66.90;;;;;;1913240;74;21151;-77
2022/10/18 10:30:06;;;;;;;28.42;16.40;;;29.10;67.00;;;;;;1880519;75;21673;-77
2022/10/18 10:32:39;;;;;;;24.25;14.45;;;29.10;67.00;;;;;;1878478;75;21157;-76
2022/10/18 10:35:13;;;;;;;26.27;16.67;;;29.00;67.30;;;;;;1895131;74;21052;-77
2022/10/18 10:37:52;;;;;;;24.20;16.37;;;29.00;67.50;;;;;;1899860;74;21174;-77
2022/10/18 10:40:25;;;;;;;26.68;17.10;;;29.00;67.60;;;;;;1894748;74;21481;-77
2022/10/18 10:43:19;;;;;;;26.48;17.75;;;29.00;67.60;;;;;;1953194;72;21135;-77
2022/10/18 10:46:12;;;;;;;31.35;17.67;;;28.90;67.60;;;;;;1963735;72;21119;-78
2022/10/18 10:49:12;;;;;;;23.92;17.87;;;28.80;67.90;;;;;;1962400;72;21183;-77
2022/10/18 10:52:05;;;;;;;22.58;17.27;;;28.80;68.30;;;;;;1946881;72;21095;-79
2022/10/18 10:54:56;;;;;;;24.98;16.77;;;28.80;68.50;;;;;;1957397;72;21106;-79
2022/10/18 10:57:29;;;;;;;31.27;17.62;;;28.80;69.00;;;;;;1904817;74;21217;-78
2022/10/18 11:00:02;;;;;;;27.52;18.25;;;28.70;69.00;;;;;;1914031;74;21178;-77
2022/10/18 11:02:36;;;;;;;25.72;18.30;;;28.70;69.10;;;;;;1908745;74;21076;-78
2022/10/18 11:05:09;;;;;;;25.23;18.37;;;28.70;69.50;;;;;;1914964;73;21740;-78
2022/10/18 11:07:42;;;;;;;30.25;19.52;;;28.60;69.80;;;;;;1908460;73;21157;-78
2022/10/18 11:10:15;;;;;;;24.30;17.57;;;28.60;70.10;;;;;;1922042;74;21163;-78
2022/10/18 11:12:49;;;;;;;30.32;18.75;;;28.60;70.30;;;;;;1929519;72;21191;-78
2022/10/18 11:15:27;;;;;;;25.85;18.02;;;28.50;70.50;;;;;;1920177;73;22414;-79
2022/10/18 11:18:00;;;;;;;28.02;17.52;;;28.50;70.70;;;;;;1916836;74;21148;-78
2022/10/18 11:20:33;;;;;;;22.80;17.62;;;28.50;71.10;;;;;;1856486;74;21177;-77
2022/10/18 11:23:07;;;;;;;36.23;18.05;;;28.50;71.20;;;;;;1916306;74;21130;-78
2022/10/18 11:25:41;;;;;;;29.70;17.27;;;28.40;71.50;;;;;;1901729;74;21130;-78
2022/10/18 11:28:14;;;;;;;26.12;17.57;;;28.40;71.80;;;;;;1908750;74;21473;-78
2022/10/18 11:30:52;;;;;;;25.82;17.70;;;28.40;72.00;;;;;;1894706;74;21173;-79
2022/10/18 11:33:25;;;;;;;32.25;17.50;;;28.30;72.10;;;;;;1904445;74;21656;-84
2022/10/18 11:36:03;;;;;;;25.02;17.80;;;28.30;72.20;;;;;;1891281;74;21194;-84
2022/10/18 11:38:43;;;;;;;24.47;18.27;;;28.30;72.60;;;;;;1896834;75;21605;-83
2022/10/18 11:41:17;;;;;;;29.37;20.85;;;28.30;72.70;;;;;;1889520;75;21063;-84
2022/10/18 11:43:50;;;;;;;37.93;20.27;;;28.30;73.20;;;;;;1897056;73;21150;-84
2022/10/18 11:46:24;;;;;;;25.62;18.25;;;28.30;73.40;;;;;;1905635;74;21199;-82
2022/10/18 11:48:55;;;;;;;32.42;18.90;;;28.30;73.60;;;;;;1877684;75;21607;-82
2022/10/18 11:51:25;;;;;;;27.80;17.82;;;28.30;73.60;;;;;;1867030;75;21095;-84
2022/10/18 11:54:00;;;;;;;23.75;18.00;;;28.30;73.90;;;;;;1920119;72;21494;-84
2022/10/18 11:56:31;;;;;;;25.70;18.87;;;28.30;73.90;;;;;;1889507;75;21178;-84
2022/10/18 11:59:05;;;;;;;24.12;18.75;;;28.20;74.20;;;;;;1878393;75;21094;-83
2022/10/18 12:01:38;;;;;;;27.90;18.92;;;28.20;74.30;;;;;;1903987;74;21595;-86
2022/10/18 12:04:11;;;;;;;26.12;19.80;;;28.20;74.50;;;;;;1923474;74;21114;-82
2022/10/18 12:06:45;;;;;;;34.00;21.95;;;28.20;74.40;;;;;;1924828;74;21691;-84
2022/10/18 12:09:18;;;;;;;32.90;21.48;;;28.20;74.60;;;;;;1904966;74;21173;-84
2022/10/18 12:11:51;;;;;;;37.70;22.17;;;28.20;74.60;;;;;;1884052;75;21583;-83
2022/10/18 12:14:26;;;;;;;35.30;22.30;;;28.20;74.70;;;;;;1886770;74;21593;-83
2022/10/18 12:16:59;;;;;;;33.58;21.17;;;28.20;74.90;;;;;;1926197;72;21986;-83
2022/10/18 12:19:34;;;;;;;37.13;23.42;;;28.20;75.00;;;;;;1888401;74;21134;-83
2022/10/18 12:22:07;;;;;;;31.17;22.60;;;28.20;75.10;;;;;;1889139;74;21272;-82
2022/10/18 12:24:42;;;;;;;31.45;22.77;;;28.10;75.10;;;;;;1902937;74;21119;-82
2022/10/18 12:27:17;;;;;;;32.70;22.90;;;28.10;75.40;;;;;;1913853;73;21164;-84
2022/10/18 12:29:55;;;;;;;33.10;21.80;;;28.10;75.40;;;;;;1903006;74;21127;-82
2022/10/18 12:32:28;;;;;;;30.85;22.70;;;28.10;75.70;;;;;;1891715;74;21115;-83
2022/10/18 12:35:02;;;;;;;31.48;21.07;;;28.10;75.60;;;;;;1910121;74;21107;-84
2022/10/18 12:37:40;;;;;;;29.92;22.13;;;28.10;75.50;;;;;;1900760;75;21229;-84
2022/10/18 12:40:11;;;;;;;34.07;22.97;;;28.00;75.50;;;;;;1932941;74;21103;-84
2022/10/18 12:42:48;;;;;;;29.65;21.25;;;28.00;75.60;;;;;;1910830;74;21124;-81
2022/10/18 12:45:22;;;;;;;29.42;22.35;;;28.00;75.80;;;;;;1917128;73;21067;-81
2022/10/18 12:47:53;;;;;;;30.30;22.70;;;28.00;75.90;;;;;;1925105;73;21087;-81
2022/10/18 12:50:27;;;;;;;34.20;23.90;;;28.00;76.30;;;;;;1918889;74;21076;-82
2022/10/18 12:53:00;;;;;;;33.15;23.67;;;27.90;76.30;;;;;;1916786;73;21119;-81
2022/10/18 12:55:33;;;;;;;35.10;22.10;;;27.90;76.50;;;;;;1876509;74;21115;-84
2022/10/18 12:58:19;;;;;;;32.40;22.87;;;27.90;76.60;;;;;;1886453;73;21088;-83